Terminal Aerodrome Forecast
Issued by NWS

Current Version | Previous Version | Text Only | Print | Product List | Glossary On
Versions: 1 2 3 4 5 6 7 8 9 10 11 12 13
000
FTUS45 KABQ 201700
TAFSAF
TAF
KSAF 201729Z 2018/2118 24010KT P6SM FEW025
     FM202000 30015G25KT P6SM BKN100
     FM202200 30015G25KT P6SM VCSH BKN100
     FM210100 30015G25KT P6SM SCT100
     FM210300 03010KT P6SM FEW100=

USA.gov is the U.S. government's official web portal to all federal, state and local government web resources and services.